createdAt,value
2023-10-27T00:01:50.205Z,27.85
2023-10-27T00:04:35.667Z,29.10
2023-10-27T00:07:21.605Z,30.20
2023-10-27T00:10:08.580Z,33.17
2023-10-27T00:12:54.440Z,36.05
2023-10-27T00:15:41.642Z,36.65
2023-10-27T00:18:27.528Z,35.60
2023-10-27T00:21:13.165Z,35.28
2023-10-27T00:23:58.833Z,34.17
2023-10-27T00:26:45.009Z,34.80
2023-10-27T00:29:30.658Z,32.55
2023-10-27T00:32:18.253Z,30.13
2023-10-27T00:35:05.823Z,29.58
2023-10-27T00:37:51.820Z,28.83
2023-10-27T00:40:37.766Z,27.70
2023-10-27T00:43:23.402Z,27.70
2023-10-27T00:46:09.601Z,27.48
2023-10-27T00:48:57.601Z,27.63
2023-10-27T00:51:43.969Z,27.42
2023-10-27T00:54:30.018Z,26.55
2023-10-27T00:57:16.090Z,27.40
2023-10-27T01:00:05.605Z,27.98
2023-10-27T01:02:51.265Z,27.90
2023-10-27T01:05:38.419Z,28.40
2023-10-27T01:08:24.050Z,27.13
2023-10-27T01:11:10.593Z,25.33
2023-10-27T01:13:56.660Z,27.35
2023-10-27T01:16:42.193Z,26.48
2023-10-27T01:19:28.482Z,26.20
2023-10-27T01:22:16.793Z,27.98
2023-10-27T01:25:04.209Z,27.70
2023-10-27T01:27:50.260Z,28.33
2023-10-27T01:30:36.524Z,25.95
2023-10-27T01:33:23.117Z,26.23
2023-10-27T01:36:09.171Z,26.77
2023-10-27T01:38:55.105Z,27.88
2023-10-27T01:41:42.304Z,26.95
2023-10-27T01:44:27.945Z,25.88
2023-10-27T01:47:13.695Z,25.73
2023-10-27T01:49:59.506Z,27.27
2023-10-27T01:52:46.939Z,30.10
2023-10-27T01:55:32.515Z,30.60
2023-10-27T01:58:19.318Z,31.13
2023-10-27T02:01:05.138Z,26.73
2023-10-27T02:03:50.797Z,26.63
2023-10-27T02:06:36.739Z,26.20
2023-10-27T02:09:22.448Z,25.83
2023-10-27T02:12:11.104Z,25.05
2023-10-27T02:14:58.406Z,25.20
2023-10-27T02:17:44.526Z,25.42
2023-10-27T02:20:31.442Z,26.20
2023-10-27T02:23:17.420Z,25.77
2023-10-27T02:26:04.605Z,26.25
2023-10-27T02:28:50.353Z,23.75
2023-10-27T02:31:37.338Z,25.77
2023-10-27T02:34:23.067Z,24.48
2023-10-27T02:37:08.721Z,25.65
2023-10-27T02:39:54.288Z,25.90
2023-10-27T02:42:40.894Z,24.73
2023-10-27T02:45:27.208Z,24.73
2023-10-27T02:48:14.653Z,26.05
2023-10-27T02:51:00.654Z,25.17
2023-10-27T02:53:46.092Z,27.65
2023-10-27T02:56:31.933Z,29.88
2023-10-27T02:59:17.476Z,30.20
2023-10-27T03:02:03.267Z,31.27
2023-10-27T03:04:53.091Z,29.50
2023-10-27T03:07:38.985Z,31.15
2023-10-27T03:10:24.580Z,24.90
2023-10-27T03:13:10.512Z,24.80
2023-10-27T03:15:58.975Z,25.65
2023-10-27T03:18:44.929Z,27.15
2023-10-27T03:21:32.839Z,28.98
2023-10-27T03:24:18.166Z,29.52
2023-10-27T03:27:04.627Z,26.58
2023-10-27T03:29:50.410Z,23.33
2023-10-27T03:32:36.006Z,22.00
2023-10-27T03:35:22.513Z,21.48
2023-10-27T03:38:09.729Z,23.13
2023-10-27T03:40:55.519Z,21.15
2023-10-27T03:43:41.336Z,21.55
2023-10-27T03:46:27.153Z,20.75
2023-10-27T03:49:13.075Z,23.80
2023-10-27T03:52:00.496Z,33.70
2023-10-27T03:54:47.272Z,20.25
2023-10-27T03:57:37.495Z,20.92
2023-10-27T04:00:26.178Z,22.00
2023-10-27T04:03:12.901Z,19.95
2023-10-27T04:05:58.848Z,19.77
2023-10-27T04:08:44.602Z,19.10
2023-10-27T04:11:31.738Z,19.10
2023-10-27T04:14:17.235Z,19.77
2023-10-27T04:17:02.834Z,19.10
2023-10-27T04:19:48.462Z,20.60
2023-10-27T04:22:34.670Z,18.80
2023-10-27T04:25:21.061Z,19.20
2023-10-27T04:28:09.544Z,18.67
2023-10-27T04:30:55.092Z,19.88
2023-10-27T04:33:41.009Z,18.17
2023-10-27T04:36:26.517Z,18.35
2023-10-27T04:39:12.180Z,18.85
2023-10-27T04:41:57.746Z,18.08
2023-10-27T04:44:44.984Z,17.75
2023-10-27T04:47:30.514Z,16.63
2023-10-27T04:50:16.197Z,16.38
2023-10-27T04:53:02.279Z,16.08
2023-10-27T04:55:48.452Z,14.65
2023-10-27T04:58:34.111Z,14.77
2023-10-27T05:01:28.542Z,14.32
2023-10-27T05:04:15.264Z,15.73
2023-10-27T05:07:01.108Z,15.65
2023-10-27T05:09:47.341Z,14.68
2023-10-27T05:12:33.346Z,14.90
2023-10-27T05:15:19.246Z,15.50
2023-10-27T05:18:07.040Z,15.45
2023-10-27T05:20:52.892Z,15.55
2023-10-27T05:23:38.863Z,14.05
2023-10-27T05:26:25.107Z,14.40
2023-10-27T05:29:11.382Z,14.70
2023-10-27T05:31:57.412Z,13.93
2023-10-27T05:34:44.312Z,14.40
2023-10-27T05:37:30.695Z,13.52
2023-10-27T05:40:16.929Z,14.93
2023-10-27T05:43:02.721Z,14.65
2023-10-27T05:45:48.626Z,13.93
2023-10-27T05:48:34.286Z,13.60
2023-10-27T05:51:21.647Z,13.02
2023-10-27T05:54:07.627Z,13.20
2023-10-27T05:56:53.399Z,15.18
2023-10-27T05:59:38.964Z,15.98
2023-10-27T06:02:24.599Z,17.02
2023-10-27T06:05:10.080Z,17.48
2023-10-27T06:07:57.743Z,14.55
2023-10-27T06:10:43.736Z,12.65
2023-10-27T06:13:30.366Z,11.52
2023-10-27T06:16:16.434Z,11.68
2023-10-27T06:19:02.465Z,11.80
2023-10-27T06:21:48.977Z,11.55
2023-10-27T06:24:36.498Z,11.88
2023-10-27T06:27:22.314Z,11.35
2023-10-27T06:30:09.017Z,11.20
2023-10-27T06:32:54.905Z,11.00
2023-10-27T06:35:41.267Z,12.30
2023-10-27T06:38:27.300Z,11.45
2023-10-27T06:41:14.284Z,10.98
2023-10-27T06:44:01.534Z,10.63
2023-10-27T06:46:47.331Z,11.63
2023-10-27T06:49:33.116Z,10.38
2023-10-27T06:52:18.527Z,10.48
2023-10-27T06:55:04.775Z,9.75
2023-10-27T06:57:51.562Z,9.70
2023-10-27T07:00:37.336Z,9.55
2023-10-27T07:03:31.521Z,10.10
2023-10-27T07:06:19.484Z,10.18
2023-10-27T07:09:05.423Z,8.85
2023-10-27T07:11:51.230Z,10.23
2023-10-27T07:14:39.941Z,16.50
2023-10-27T07:17:25.965Z,15.45
2023-10-27T07:20:12.792Z,10.00
2023-10-27T07:23:01.524Z,8.98
2023-10-27T07:25:47.158Z,8.27
2023-10-27T07:28:32.953Z,8.35
2023-10-27T07:31:20.235Z,6.88
2023-10-27T07:34:09.232Z,8.35
2023-10-27T07:36:55.106Z,7.93
2023-10-27T07:39:40.774Z,7.38
2023-10-27T07:42:27.435Z,6.97
2023-10-27T07:45:13.207Z,6.68
2023-10-27T07:48:01.657Z,6.35
2023-10-27T07:50:47.562Z,6.65
2023-10-27T07:53:36.140Z,6.90
2023-10-27T07:56:21.800Z,6.65
2023-10-27T07:59:07.409Z,6.25
2023-10-27T08:01:53.102Z,6.47
2023-10-27T08:04:40.354Z,6.30
2023-10-27T08:07:26.676Z,6.85
2023-10-27T08:10:12.547Z,7.55
2023-10-27T08:12:58.666Z,8.30
2023-10-27T08:15:44.921Z,7.85
2023-10-27T08:18:30.485Z,8.68
2023-10-27T08:21:18.100Z,10.07
2023-10-27T08:24:04.202Z,8.95
2023-10-27T08:26:50.001Z,8.98
2023-10-27T08:29:35.741Z,8.40
2023-10-27T08:32:22.960Z,8.40
2023-10-27T08:35:08.887Z,8.00
2023-10-27T08:37:56.340Z,8.18
2023-10-27T08:40:44.141Z,8.20
2023-10-27T08:43:30.188Z,8.45
2023-10-27T08:46:16.604Z,8.25
2023-10-27T08:49:02.774Z,8.57
2023-10-27T08:51:49.227Z,8.55
2023-10-27T08:54:41.184Z,8.90
2023-10-27T08:57:27.192Z,10.02
2023-10-27T09:00:13.657Z,11.05
2023-10-27T09:02:59.837Z,13.15
2023-10-27T09:05:46.421Z,15.15
2023-10-27T09:08:32.079Z,11.88
2023-10-27T09:11:19.166Z,8.63
2023-10-27T09:14:17.822Z,8.88
2023-10-27T09:17:06.620Z,8.27
2023-10-27T09:20:04.620Z,8.32
2023-10-27T09:22:58.094Z,8.60
2023-10-27T09:25:45.730Z,9.15
2023-10-27T09:28:33.191Z,8.68
2023-10-27T09:31:33.691Z,8.82
2023-10-27T09:34:21.370Z,8.68
2023-10-27T09:37:07.513Z,8.55
2023-10-27T09:39:53.658Z,8.95
2023-10-27T09:42:39.784Z,7.85
2023-10-27T09:45:29.390Z,7.70
2023-10-27T09:48:17.307Z,7.85
2023-10-27T09:51:06.014Z,7.78
2023-10-27T09:53:53.068Z,7.75
2023-10-27T09:56:40.685Z,7.65
2023-10-27T09:59:28.679Z,8.05
2023-10-27T10:02:16.920Z,9.07
2023-10-27T10:05:03.041Z,7.95
2023-10-27T10:07:56.329Z,8.55
2023-10-27T10:10:42.083Z,8.30
2023-10-27T10:13:38.119Z,8.23
2023-10-27T10:16:24.493Z,7.40
2023-10-27T10:19:11.989Z,8.02
2023-10-27T10:21:58.097Z,7.43
2023-10-27T10:25:26.425Z,8.20
2023-10-27T10:28:34.447Z,7.45
2023-10-27T10:31:25.565Z,7.13
2023-10-27T10:34:13.002Z,7.57
2023-10-27T10:37:26.128Z,8.02
2023-10-27T10:40:19.381Z,7.05
2023-10-27T10:43:24.768Z,8.60
2023-10-27T10:46:12.895Z,8.10
2023-10-27T10:48:58.991Z,8.30
2023-10-27T10:51:51.130Z,11.52
2023-10-27T10:54:37.256Z,11.52
2023-10-27T10:57:22.645Z,11.45
2023-10-27T11:00:09.802Z,8.75
2023-10-27T11:03:07.007Z,8.70
2023-10-27T11:05:56.510Z,11.68
2023-10-27T11:08:45.829Z,7.43
2023-10-27T11:11:47.171Z,7.50
2023-10-27T11:14:41.123Z,6.85
2023-10-27T11:17:26.872Z,7.13
2023-10-27T11:20:12.349Z,7.47
2023-10-27T11:23:08.710Z,12.13
2023-10-27T11:26:02.994Z,6.70
2023-10-27T11:28:49.368Z,6.20
2023-10-27T11:31:41.119Z,6.43
2023-10-27T11:34:29.140Z,6.53
2023-10-27T11:37:16.948Z,7.00
2023-10-27T11:40:21.079Z,7.55
2023-10-27T11:43:08.573Z,7.47
2023-10-27T11:45:54.394Z,7.03
2023-10-27T11:48:40.020Z,6.45
2023-10-27T11:51:25.750Z,6.07
2023-10-27T11:54:11.245Z,6.15
2023-10-27T11:56:56.950Z,5.97
2023-10-27T11:59:44.184Z,5.93
2023-10-27T12:02:29.977Z,6.00
2023-10-27T12:05:16.115Z,6.25
2023-10-27T12:08:02.225Z,6.95
2023-10-27T12:10:53.073Z,6.35
2023-10-27T12:13:38.718Z,7.10
2023-10-27T12:16:25.685Z,5.88
2023-10-27T12:19:15.099Z,6.75
2023-10-27T12:22:02.288Z,6.05
2023-10-27T12:24:47.954Z,5.90
2023-10-27T12:27:34.237Z,5.35
2023-10-27T12:30:24.990Z,5.35
2023-10-27T12:35:58.435Z,4.95
2023-10-27T12:38:43.981Z,5.00
2023-10-27T12:41:29.733Z,5.40
2023-10-27T12:44:15.753Z,6.22
2023-10-27T12:47:01.195Z,6.80
2023-10-27T12:49:48.382Z,7.97
2023-10-27T12:52:34.244Z,6.75
2023-10-27T12:55:20.472Z,6.80
2023-10-27T12:58:09.861Z,5.45
2023-10-27T13:00:55.560Z,5.82
2023-10-27T13:03:41.303Z,5.05
2023-10-27T13:06:28.850Z,5.03
2023-10-27T13:09:14.752Z,6.18
2023-10-27T13:12:00.620Z,5.53
2023-10-27T13:14:46.474Z,5.90
2023-10-27T13:17:32.356Z,6.07
2023-10-27T13:20:18.725Z,5.25
2023-10-27T13:23:06.070Z,5.05
2023-10-27T13:25:51.594Z,5.28
2023-10-27T13:28:37.650Z,4.65
2023-10-27T13:31:23.490Z,4.40
2023-10-27T13:34:09.600Z,4.10
2023-10-27T13:36:55.433Z,4.20
2023-10-27T13:39:42.403Z,3.80
2023-10-27T13:42:27.895Z,4.22
2023-10-27T13:45:13.843Z,3.92
2023-10-27T13:47:59.658Z,3.78
2023-10-27T13:50:45.725Z,3.95
2023-10-27T13:53:31.556Z,3.80
2023-10-27T13:56:21.041Z,3.97
2023-10-27T13:59:06.901Z,4.22
2023-10-27T14:01:52.539Z,4.88
2023-10-27T14:04:38.983Z,5.93
2023-10-27T14:07:24.826Z,5.65
2023-10-27T14:10:11.211Z,6.55
2023-10-27T14:12:58.452Z,7.38
2023-10-27T14:15:44.339Z,8.50
2023-10-27T14:18:30.999Z,9.02
2023-10-27T14:21:17.459Z,8.80
2023-10-27T14:24:03.467Z,8.43
2023-10-27T14:26:50.433Z,10.15
2023-10-27T14:29:39.199Z,9.00
2023-10-27T14:32:25.294Z,9.88
2023-10-27T14:35:11.608Z,10.45
2023-10-27T14:37:57.533Z,10.65
2023-10-27T14:40:54.083Z,9.48
2023-10-27T14:43:40.923Z,9.52
2023-10-27T14:46:30.636Z,9.35
2023-10-27T14:49:18.545Z,8.98
2023-10-27T14:52:05.253Z,8.40
2023-10-27T14:54:51.828Z,8.60
2023-10-27T14:57:43.484Z,9.13
2023-10-27T15:00:31.773Z,10.20
2023-10-27T15:03:19.051Z,10.10
2023-10-27T15:06:06.172Z,9.15
2023-10-27T15:08:51.785Z,8.45
2023-10-27T15:11:37.849Z,7.65
2023-10-27T15:14:23.823Z,7.75
2023-10-27T15:17:09.396Z,6.05
2023-10-27T15:19:58.555Z,6.00
2023-10-27T15:22:44.345Z,5.88
2023-10-27T15:25:34.119Z,5.60
2023-10-27T15:28:20.281Z,6.07
2023-10-27T15:31:07.875Z,5.50
2023-10-27T15:33:53.881Z,5.57
2023-10-27T15:36:41.574Z,5.68
2023-10-27T15:39:27.495Z,5.97
2023-10-27T15:42:13.859Z,5.72
2023-10-27T15:45:01.066Z,6.18
2023-10-27T15:47:49.468Z,7.68
2023-10-27T15:50:36.252Z,7.65
2023-10-27T15:53:23.749Z,6.93
2023-10-27T15:56:12.012Z,7.55
2023-10-27T15:59:00.428Z,7.40
2023-10-27T16:01:46.182Z,7.97
2023-10-27T16:04:32.306Z,8.50
2023-10-27T16:07:18.038Z,9.77
2023-10-27T16:10:06.726Z,9.20
2023-10-27T16:12:52.898Z,9.27
2023-10-27T16:15:39.198Z,9.45
2023-10-27T16:18:25.203Z,9.27
2023-10-27T16:21:12.863Z,12.10
2023-10-27T16:23:58.344Z,10.95
2023-10-27T16:26:45.777Z,10.88
2023-10-27T16:29:31.578Z,12.00
2023-10-27T16:32:17.135Z,11.73
2023-10-27T16:35:04.386Z,12.02
2023-10-27T16:37:50.264Z,12.48
2023-10-27T16:40:39.502Z,13.02
2023-10-27T16:43:26.976Z,11.45
2023-10-27T16:46:12.730Z,12.13
2023-10-27T16:48:59.371Z,11.98
2023-10-27T16:51:45.195Z,11.73
2023-10-27T16:54:32.142Z,13.02
2023-10-27T16:57:18.782Z,13.07
2023-10-27T17:00:07.891Z,12.60
2023-10-27T17:02:54.573Z,12.80
2023-10-27T17:05:40.578Z,12.60
2023-10-27T17:08:29.143Z,13.48
2023-10-27T17:11:14.823Z,13.93
2023-10-27T17:14:00.577Z,13.57
2023-10-27T17:16:48.100Z,13.85
2023-10-27T17:19:34.082Z,14.02
2023-10-27T17:22:20.097Z,13.52
2023-10-27T17:25:07.676Z,13.60
2023-10-27T17:27:53.765Z,13.52
2023-10-27T17:30:43.331Z,13.63
2023-10-27T17:33:35.074Z,15.63
2023-10-27T17:36:24.579Z,14.48
2023-10-27T17:39:10.594Z,15.73
2023-10-27T17:41:56.231Z,15.23
2023-10-27T17:44:42.920Z,14.00
2023-10-27T17:47:28.909Z,15.23
2023-10-27T17:50:15.905Z,14.43
2023-10-27T17:53:03.987Z,12.93
2023-10-27T17:55:50.849Z,15.25
2023-10-27T17:58:37.005Z,14.52
2023-10-27T18:01:22.884Z,14.25
2023-10-27T18:04:10.346Z,13.70
2023-10-27T18:06:57.628Z,15.60
2023-10-27T18:09:45.670Z,15.45
2023-10-27T18:12:31.516Z,14.80
2023-10-27T18:15:19.276Z,16.95
2023-10-27T18:18:05.259Z,16.50
2023-10-27T18:20:51.213Z,15.57
2023-10-27T18:23:38.343Z,15.85
2023-10-27T18:26:24.183Z,14.45
2023-10-27T18:29:10.270Z,13.95
2023-10-27T18:31:56.485Z,13.73
2023-10-27T18:34:42.499Z,13.70
2023-10-27T18:37:28.833Z,14.18
2023-10-27T18:40:17.663Z,15.80
2023-10-27T18:43:05.111Z,13.77
2023-10-27T18:45:55.979Z,14.68
2023-10-27T18:48:44.527Z,14.18
2023-10-27T18:51:32.488Z,14.10
2023-10-27T18:54:18.414Z,15.63
2023-10-27T18:57:05.943Z,14.60
2023-10-27T18:59:51.791Z,16.13
2023-10-27T19:02:38.622Z,17.33
2023-10-27T19:05:24.186Z,16.65
2023-10-27T19:08:10.514Z,18.60
2023-10-27T19:11:05.325Z,18.50
2023-10-27T19:13:53.122Z,18.15
2023-10-27T19:16:39.641Z,17.42
2023-10-27T19:19:27.584Z,17.25
2023-10-27T19:22:13.234Z,17.25
2023-10-27T19:24:58.743Z,15.70
2023-10-27T19:27:44.806Z,15.55
2023-10-27T19:30:31.694Z,13.70
2023-10-27T19:33:17.348Z,14.38
2023-10-27T19:36:03.862Z,13.55
2023-10-27T19:38:50.042Z,12.35
2023-10-27T19:41:36.117Z,12.45
2023-10-27T19:44:22.070Z,11.95
2023-10-27T19:47:09.264Z,12.05
2023-10-27T19:50:00.724Z,11.57
2023-10-27T19:52:48.771Z,11.65
2023-10-27T19:55:36.055Z,12.20
2023-10-27T19:58:22.113Z,11.35
2023-10-27T20:01:11.662Z,11.73
2023-10-27T20:03:58.906Z,10.82
2023-10-27T20:06:44.448Z,11.60
2023-10-27T20:09:30.147Z,11.35
2023-10-27T20:12:16.349Z,10.60
2023-10-27T20:15:02.296Z,10.80
2023-10-27T20:17:50.070Z,11.05
2023-10-27T20:20:38.728Z,10.43
2023-10-27T20:23:24.571Z,9.98
2023-10-27T20:26:11.568Z,9.45
2023-10-27T20:28:57.233Z,9.73
2023-10-27T20:31:43.940Z,10.02
2023-10-27T20:34:29.921Z,9.40
2023-10-27T20:37:18.288Z,9.85
2023-10-27T20:40:06.311Z,8.48
2023-10-27T20:42:52.013Z,8.60
2023-10-27T20:45:38.089Z,8.68
2023-10-27T20:48:24.116Z,8.75
2023-10-27T20:51:10.213Z,8.52
2023-10-27T20:53:59.958Z,8.88
2023-10-27T20:56:45.584Z,8.35
2023-10-27T20:59:31.176Z,7.90
2023-10-27T21:02:17.285Z,8.73
2023-10-27T21:05:03.256Z,7.97
2023-10-27T21:07:50.124Z,7.97
2023-10-27T21:10:42.736Z,7.78
2023-10-27T21:13:28.977Z,8.32
2023-10-27T21:16:14.997Z,7.90
2023-10-27T21:19:00.430Z,8.55
2023-10-27T21:21:46.671Z,8.50
2023-10-27T21:24:33.233Z,8.75
2023-10-27T21:27:20.245Z,9.23
2023-10-27T21:30:07.140Z,8.98
2023-10-27T21:32:53.276Z,8.63
2023-10-27T21:35:38.615Z,9.57
2023-10-27T21:38:24.407Z,9.18
2023-10-27T21:41:09.958Z,9.60
2023-10-27T21:43:57.249Z,8.95
2023-10-27T21:46:44.291Z,9.48
2023-10-27T21:49:30.119Z,9.15
2023-10-27T21:52:16.101Z,8.93
2023-10-27T21:55:01.575Z,9.25
2023-10-27T21:57:47.954Z,9.07
2023-10-27T22:00:38.250Z,9.10
2023-10-27T22:03:27.023Z,10.23
2023-10-27T22:06:12.687Z,8.90
2023-10-27T22:08:58.327Z,9.68
2023-10-27T22:11:46.182Z,9.00
2023-10-27T22:14:36.827Z,9.07
2023-10-27T22:17:24.267Z,9.02
2023-10-27T22:20:11.521Z,9.45
2023-10-27T22:22:58.136Z,9.18
2023-10-27T22:25:44.854Z,9.32
2023-10-27T22:28:30.680Z,9.07
2023-10-27T22:31:16.791Z,8.63
2023-10-27T22:34:04.263Z,8.82
2023-10-27T22:36:50.168Z,8.75
2023-10-27T22:39:35.837Z,8.18
2023-10-27T22:42:21.661Z,9.00
2023-10-27T22:45:11.289Z,8.38
2023-10-27T22:47:57.973Z,7.85
2023-10-27T22:50:46.174Z,8.50
2023-10-27T22:53:32.565Z,8.82
2023-10-27T22:56:18.141Z,9.40
2023-10-27T22:59:04.293Z,9.45
2023-10-27T23:01:50.325Z,8.90
2023-10-27T23:04:36.674Z,8.75
2023-10-27T23:07:23.980Z,7.80
2023-10-27T23:10:13.572Z,8.50
2023-10-27T23:12:59.689Z,8.32
2023-10-27T23:15:45.949Z,8.57
2023-10-27T23:18:31.624Z,8.48
2023-10-27T23:21:17.864Z,8.05
2023-10-27T23:24:09.003Z,8.10
2023-10-27T23:26:56.424Z,8.27
2023-10-27T23:29:41.999Z,8.07
2023-10-27T23:32:28.106Z,7.70
2023-10-27T23:35:13.972Z,7.80
2023-10-27T23:37:59.821Z,8.52
2023-10-27T23:40:48.644Z,8.38
2023-10-27T23:43:34.928Z,8.32
2023-10-27T23:46:22.281Z,8.23
2023-10-27T23:49:09.239Z,8.40
2023-10-27T23:51:54.794Z,8.98
2023-10-27T23:54:40.299Z,9.10
2023-10-27T23:57:27.618Z,9.60
